sensor_id;sensor_type;location;lat;lon;timestamp;P1;durP1;ratioP1;P2;durP2;ratioP2
25567;SDS011;13455;51.480;7.594;2023-06-19T00:00:28;4.97;;;3.95;;
25567;SDS011;13455;51.480;7.594;2023-06-19T00:02:55;5.75;;;4.18;;
25567;SDS011;13455;51.480;7.594;2023-06-19T00:05:21;6.20;;;4.18;;
25567;SDS011;13455;51.480;7.594;2023-06-19T00:07:48;5.05;;;4.30;;
25567;SDS011;13455;51.480;7.594;2023-06-19T00:10:14;4.83;;;4.00;;
25567;SDS011;13455;51.480;7.594;2023-06-19T00:12:39;5.70;;;4.40;;
25567;SDS011;13455;51.480;7.594;2023-06-19T00:15:05;5.97;;;4.10;;
25567;SDS011;13455;51.480;7.594;2023-06-19T00:17:32;6.72;;;4.25;;
25567;SDS011;13455;51.480;7.594;2023-06-19T00:19:58;5.18;;;4.10;;
25567;SDS011;13455;51.480;7.594;2023-06-19T00:22:24;5.07;;;4.20;;
25567;SDS011;13455;51.480;7.594;2023-06-19T00:24:50;4.93;;;4.20;;
25567;SDS011;13455;51.480;7.594;2023-06-19T00:27:17;5.65;;;4.25;;
25567;SDS011;13455;51.480;7.594;2023-06-19T00:29:43;5.40;;;4.57;;
25567;SDS011;13455;51.480;7.594;2023-06-19T00:32:09;5.10;;;4.60;;
25567;SDS011;13455;51.480;7.594;2023-06-19T00:34:34;5.63;;;4.80;;
25567;SDS011;13455;51.480;7.594;2023-06-19T00:37:02;6.82;;;4.35;;
25567;SDS011;13455;51.480;7.594;2023-06-19T00:39:28;5.85;;;4.38;;
25567;SDS011;13455;51.480;7.594;2023-06-19T00:41:56;4.97;;;4.47;;
25567;SDS011;13455;51.480;7.594;2023-06-19T00:44:22;6.65;;;4.30;;
25567;SDS011;13455;51.480;7.594;2023-06-19T00:46:50;6.10;;;4.10;;
25567;SDS011;13455;51.480;7.594;2023-06-19T00:49:20;6.70;;;4.30;;
25567;SDS011;13455;51.480;7.594;2023-06-19T00:51:46;5.15;;;4.50;;
25567;SDS011;13455;51.480;7.594;2023-06-19T00:54:12;5.70;;;3.90;;
25567;SDS011;13455;51.480;7.594;2023-06-19T00:56:38;5.78;;;4.25;;
25567;SDS011;13455;51.480;7.594;2023-06-19T00:59:11;5.50;;;3.97;;
25567;SDS011;13455;51.480;7.594;2023-06-19T01:01:39;5.38;;;4.20;;
25567;SDS011;13455;51.480;7.594;2023-06-19T01:04:04;5.25;;;4.05;;
25567;SDS011;13455;51.480;7.594;2023-06-19T01:06:32;4.87;;;4.00;;
25567;SDS011;13455;51.480;7.594;2023-06-19T01:09:08;5.80;;;4.07;;
25567;SDS011;13455;51.480;7.594;2023-06-19T01:11:37;4.57;;;3.90;;
25567;SDS011;13455;51.480;7.594;2023-06-19T01:14:09;5.80;;;3.97;;
25567;SDS011;13455;51.480;7.594;2023-06-19T01:16:38;4.22;;;3.83;;
25567;SDS011;13455;51.480;7.594;2023-06-19T01:19:05;6.35;;;4.10;;
25567;SDS011;13455;51.480;7.594;2023-06-19T01:21:31;5.70;;;3.97;;
25567;SDS011;13455;51.480;7.594;2023-06-19T01:23:57;5.15;;;4.05;;
25567;SDS011;13455;51.480;7.594;2023-06-19T01:26:23;5.15;;;4.13;;
25567;SDS011;13455;51.480;7.594;2023-06-19T01:28:51;6.07;;;4.25;;
25567;SDS011;13455;51.480;7.594;2023-06-19T01:31:20;5.60;;;4.40;;
25567;SDS011;13455;51.480;7.594;2023-06-19T01:33:47;4.93;;;4.35;;
25567;SDS011;13455;51.480;7.594;2023-06-19T01:36:13;6.70;;;4.43;;
25567;SDS011;13455;51.480;7.594;2023-06-19T01:38:40;5.60;;;4.40;;
25567;SDS011;13455;51.480;7.594;2023-06-19T01:41:06;5.63;;;4.20;;
25567;SDS011;13455;51.480;7.594;2023-06-19T01:43:33;5.53;;;4.40;;
25567;SDS011;13455;51.480;7.594;2023-06-19T01:45:59;5.85;;;4.57;;
25567;SDS011;13455;51.480;7.594;2023-06-19T01:48:26;5.70;;;4.57;;
25567;SDS011;13455;51.480;7.594;2023-06-19T01:50:52;5.72;;;4.35;;
25567;SDS011;13455;51.480;7.594;2023-06-19T01:53:18;7.20;;;4.63;;
25567;SDS011;13455;51.480;7.594;2023-06-19T01:55:44;7.03;;;4.80;;
25567;SDS011;13455;51.480;7.594;2023-06-19T01:58:10;6.32;;;4.70;;
25567;SDS011;13455;51.480;7.594;2023-06-19T02:00:36;5.93;;;4.53;;
25567;SDS011;13455;51.480;7.594;2023-06-19T02:03:02;6.07;;;4.80;;
25567;SDS011;13455;51.480;7.594;2023-06-19T02:05:32;6.55;;;4.80;;
25567;SDS011;13455;51.480;7.594;2023-06-19T02:07:59;6.27;;;4.80;;
25567;SDS011;13455;51.480;7.594;2023-06-19T02:10:24;5.22;;;4.50;;
25567;SDS011;13455;51.480;7.594;2023-06-19T02:12:50;7.77;;;4.87;;
25567;SDS011;13455;51.480;7.594;2023-06-19T02:15:16;7.20;;;4.85;;
25567;SDS011;13455;51.480;7.594;2023-06-19T02:17:41;5.60;;;4.70;;
25567;SDS011;13455;51.480;7.594;2023-06-19T02:20:08;5.90;;;4.67;;
25567;SDS011;13455;51.480;7.594;2023-06-19T02:22:37;5.75;;;4.63;;
25567;SDS011;13455;51.480;7.594;2023-06-19T02:25:04;5.50;;;4.72;;
25567;SDS011;13455;51.480;7.594;2023-06-19T02:27:30;6.82;;;4.80;;
25567;SDS011;13455;51.480;7.594;2023-06-19T02:29:56;5.57;;;4.63;;
25567;SDS011;13455;51.480;7.594;2023-06-19T02:32:22;6.30;;;4.77;;
25567;SDS011;13455;51.480;7.594;2023-06-19T02:34:48;6.00;;;4.80;;
25567;SDS011;13455;51.480;7.594;2023-06-19T02:37:14;6.37;;;4.90;;
25567;SDS011;13455;51.480;7.594;2023-06-19T02:39:40;7.18;;;4.78;;
25567;SDS011;13455;51.480;7.594;2023-06-19T02:42:06;6.90;;;4.90;;
25567;SDS011;13455;51.480;7.594;2023-06-19T02:44:32;5.53;;;4.83;;
25567;SDS011;13455;51.480;7.594;2023-06-19T02:46:58;6.53;;;5.00;;
25567;SDS011;13455;51.480;7.594;2023-06-19T02:49:24;7.07;;;4.78;;
25567;SDS011;13455;51.480;7.594;2023-06-19T02:51:50;6.28;;;5.03;;
25567;SDS011;13455;51.480;7.594;2023-06-19T02:54:16;6.57;;;5.00;;
25567;SDS011;13455;51.480;7.594;2023-06-19T02:56:42;8.88;;;5.20;;
25567;SDS011;13455;51.480;7.594;2023-06-19T02:59:08;5.80;;;4.80;;
25567;SDS011;13455;51.480;7.594;2023-06-19T03:01:34;6.25;;;4.82;;
25567;SDS011;13455;51.480;7.594;2023-06-19T03:04:00;6.28;;;4.80;;
25567;SDS011;13455;51.480;7.594;2023-06-19T03:06:26;7.68;;;5.10;;
25567;SDS011;13455;51.480;7.594;2023-06-19T03:08:53;8.60;;;5.47;;
25567;SDS011;13455;51.480;7.594;2023-06-19T03:11:19;7.15;;;5.40;;
25567;SDS011;13455;51.480;7.594;2023-06-19T03:13:46;6.85;;;5.35;;
25567;SDS011;13455;51.480;7.594;2023-06-19T03:16:12;7.25;;;5.15;;
25567;SDS011;13455;51.480;7.594;2023-06-19T03:18:39;6.95;;;5.53;;
25567;SDS011;13455;51.480;7.594;2023-06-19T03:21:05;8.80;;;5.28;;
25567;SDS011;13455;51.480;7.594;2023-06-19T03:23:31;7.78;;;5.43;;
25567;SDS011;13455;51.480;7.594;2023-06-19T03:25:57;8.37;;;5.60;;
25567;SDS011;13455;51.480;7.594;2023-06-19T03:28:23;7.67;;;5.60;;
25567;SDS011;13455;51.480;7.594;2023-06-19T03:30:50;7.57;;;5.40;;
25567;SDS011;13455;51.480;7.594;2023-06-19T03:33:16;8.73;;;5.97;;
25567;SDS011;13455;51.480;7.594;2023-06-19T03:35:42;8.17;;;5.53;;
25567;SDS011;13455;51.480;7.594;2023-06-19T03:38:09;7.27;;;5.60;;
25567;SDS011;13455;51.480;7.594;2023-06-19T03:40:35;6.97;;;5.33;;
25567;SDS011;13455;51.480;7.594;2023-06-19T03:43:01;8.63;;;5.05;;
25567;SDS011;13455;51.480;7.594;2023-06-19T03:45:27;9.13;;;4.70;;
25567;SDS011;13455;51.480;7.594;2023-06-19T03:47:53;7.57;;;5.20;;
25567;SDS011;13455;51.480;7.594;2023-06-19T03:50:19;5.97;;;4.83;;
25567;SDS011;13455;51.480;7.594;2023-06-19T03:52:45;5.78;;;4.63;;
25567;SDS011;13455;51.480;7.594;2023-06-19T03:55:11;6.28;;;4.20;;
25567;SDS011;13455;51.480;7.594;2023-06-19T03:57:37;5.40;;;4.15;;
25567;SDS011;13455;51.480;7.594;2023-06-19T04:00:03;6.82;;;4.00;;
25567;SDS011;13455;51.480;7.594;2023-06-19T04:02:38;5.70;;;3.90;;
25567;SDS011;13455;51.480;7.594;2023-06-19T04:05:04;6.50;;;3.70;;
25567;SDS011;13455;51.480;7.594;2023-06-19T04:07:30;4.53;;;3.60;;
25567;SDS011;13455;51.480;7.594;2023-06-19T04:09:56;4.47;;;3.60;;
25567;SDS011;13455;51.480;7.594;2023-06-19T04:12:22;6.30;;;3.80;;
25567;SDS011;13455;51.480;7.594;2023-06-19T04:14:48;4.78;;;3.63;;
25567;SDS011;13455;51.480;7.594;2023-06-19T04:17:14;4.75;;;3.50;;
25567;SDS011;13455;51.480;7.594;2023-06-19T04:19:40;5.13;;;3.60;;
25567;SDS011;13455;51.480;7.594;2023-06-19T04:22:06;5.43;;;3.35;;
25567;SDS011;13455;51.480;7.594;2023-06-19T04:24:32;4.30;;;3.53;;
25567;SDS011;13455;51.480;7.594;2023-06-19T04:26:58;4.85;;;3.45;;
25567;SDS011;13455;51.480;7.594;2023-06-19T04:29:24;5.17;;;3.33;;
25567;SDS011;13455;51.480;7.594;2023-06-19T04:31:50;4.73;;;3.27;;
25567;SDS011;13455;51.480;7.594;2023-06-19T04:34:16;4.10;;;3.17;;
25567;SDS011;13455;51.480;7.594;2023-06-19T04:36:46;5.18;;;3.05;;
25567;SDS011;13455;51.480;7.594;2023-06-19T04:39:12;5.18;;;3.30;;
25567;SDS011;13455;51.480;7.594;2023-06-19T04:41:37;4.93;;;3.30;;
25567;SDS011;13455;51.480;7.594;2023-06-19T04:44:06;4.32;;;3.30;;
25567;SDS011;13455;51.480;7.594;2023-06-19T04:46:32;5.95;;;3.13;;
25567;SDS011;13455;51.480;7.594;2023-06-19T04:48:58;4.95;;;3.35;;
25567;SDS011;13455;51.480;7.594;2023-06-19T04:51:24;4.40;;;3.33;;
25567;SDS011;13455;51.480;7.594;2023-06-19T04:53:51;4.50;;;3.28;;
25567;SDS011;13455;51.480;7.594;2023-06-19T04:56:17;5.85;;;3.50;;
25567;SDS011;13455;51.480;7.594;2023-06-19T04:58:42;4.80;;;3.17;;
25567;SDS011;13455;51.480;7.594;2023-06-19T05:01:12;4.30;;;3.13;;
25567;SDS011;13455;51.480;7.594;2023-06-19T05:03:39;5.38;;;3.30;;
25567;SDS011;13455;51.480;7.594;2023-06-19T05:06:05;4.07;;;3.13;;
25567;SDS011;13455;51.480;7.594;2023-06-19T05:08:31;4.93;;;3.10;;
25567;SDS011;13455;51.480;7.594;2023-06-19T05:10:57;4.67;;;3.37;;
25567;SDS011;13455;51.480;7.594;2023-06-19T05:13:23;4.95;;;2.90;;
25567;SDS011;13455;51.480;7.594;2023-06-19T05:15:49;4.10;;;2.80;;
25567;SDS011;13455;51.480;7.594;2023-06-19T05:18:15;4.27;;;2.70;;
25567;SDS011;13455;51.480;7.594;2023-06-19T05:20:41;4.27;;;3.00;;
25567;SDS011;13455;51.480;7.594;2023-06-19T05:23:07;6.93;;;3.30;;
25567;SDS011;13455;51.480;7.594;2023-06-19T05:25:33;4.03;;;3.00;;
25567;SDS011;13455;51.480;7.594;2023-06-19T05:27:59;5.93;;;2.80;;
25567;SDS011;13455;51.480;7.594;2023-06-19T05:30:25;4.03;;;2.88;;
25567;SDS011;13455;51.480;7.594;2023-06-19T05:32:51;5.00;;;2.80;;
25567;SDS011;13455;51.480;7.594;2023-06-19T05:35:17;4.75;;;3.00;;
25567;SDS011;13455;51.480;7.594;2023-06-19T05:37:43;4.60;;;3.05;;
25567;SDS011;13455;51.480;7.594;2023-06-19T05:40:09;5.30;;;3.30;;
25567;SDS011;13455;51.480;7.594;2023-06-19T05:42:36;3.92;;;2.80;;
25567;SDS011;13455;51.480;7.594;2023-06-19T05:45:02;3.92;;;2.63;;
25567;SDS011;13455;51.480;7.594;2023-06-19T05:47:28;4.50;;;2.60;;
25567;SDS011;13455;51.480;7.594;2023-06-19T05:49:56;5.07;;;2.40;;
25567;SDS011;13455;51.480;7.594;2023-06-19T05:52:22;4.90;;;2.33;;
25567;SDS011;13455;51.480;7.594;2023-06-19T05:54:48;3.47;;;2.20;;
25567;SDS011;13455;51.480;7.594;2023-06-19T05:57:14;4.75;;;2.33;;
25567;SDS011;13455;51.480;7.594;2023-06-19T05:59:41;3.63;;;2.10;;
25567;SDS011;13455;51.480;7.594;2023-06-19T06:02:07;3.15;;;2.10;;
25567;SDS011;13455;51.480;7.594;2023-06-19T06:04:33;3.10;;;1.92;;
25567;SDS011;13455;51.480;7.594;2023-06-19T06:07:00;2.63;;;2.00;;
25567;SDS011;13455;51.480;7.594;2023-06-19T06:09:26;3.25;;;2.10;;
25567;SDS011;13455;51.480;7.594;2023-06-19T06:11:52;4.10;;;2.17;;
25567;SDS011;13455;51.480;7.594;2023-06-19T06:14:18;3.73;;;2.20;;
25567;SDS011;13455;51.480;7.594;2023-06-19T06:16:44;4.00;;;2.20;;
25567;SDS011;13455;51.480;7.594;2023-06-19T06:19:10;4.33;;;2.30;;
25567;SDS011;13455;51.480;7.594;2023-06-19T06:21:36;3.20;;;2.33;;
25567;SDS011;13455;51.480;7.594;2023-06-19T06:24:02;2.65;;;1.90;;
25567;SDS011;13455;51.480;7.594;2023-06-19T06:26:28;3.42;;;2.05;;
25567;SDS011;13455;51.480;7.594;2023-06-19T06:28:54;3.00;;;2.03;;
25567;SDS011;13455;51.480;7.594;2023-06-19T06:31:21;3.13;;;2.03;;
25567;SDS011;13455;51.480;7.594;2023-06-19T06:33:47;3.50;;;1.93;;
25567;SDS011;13455;51.480;7.594;2023-06-19T06:36:16;3.77;;;2.03;;
25567;SDS011;13455;51.480;7.594;2023-06-19T06:38:42;2.95;;;1.90;;
25567;SDS011;13455;51.480;7.594;2023-06-19T06:41:09;3.63;;;2.22;;
25567;SDS011;13455;51.480;7.594;2023-06-19T06:43:35;3.28;;;1.95;;
25567;SDS011;13455;51.480;7.594;2023-06-19T06:46:00;2.75;;;1.85;;
25567;SDS011;13455;51.480;7.594;2023-06-19T06:48:26;3.05;;;1.75;;
25567;SDS011;13455;51.480;7.594;2023-06-19T06:50:52;3.10;;;1.90;;
25567;SDS011;13455;51.480;7.594;2023-06-19T06:53:24;2.63;;;1.65;;
25567;SDS011;13455;51.480;7.594;2023-06-19T06:55:51;4.25;;;2.20;;
25567;SDS011;13455;51.480;7.594;2023-06-19T06:58:17;4.80;;;1.80;;
25567;SDS011;13455;51.480;7.594;2023-06-19T07:00:43;3.10;;;1.77;;
25567;SDS011;13455;51.480;7.594;2023-06-19T07:03:09;2.95;;;1.70;;
25567;SDS011;13455;51.480;7.594;2023-06-19T07:05:35;2.75;;;1.90;;
25567;SDS011;13455;51.480;7.594;2023-06-19T07:08:01;2.57;;;1.70;;
25567;SDS011;13455;51.480;7.594;2023-06-19T07:10:27;3.17;;;1.88;;
25567;SDS011;13455;51.480;7.594;2023-06-19T07:12:52;3.00;;;1.70;;
25567;SDS011;13455;51.480;7.594;2023-06-19T07:15:18;4.03;;;1.80;;
25567;SDS011;13455;51.480;7.594;2023-06-19T07:17:44;2.35;;;1.70;;
25567;SDS011;13455;51.480;7.594;2023-06-19T07:20:10;3.25;;;1.80;;
25567;SDS011;13455;51.480;7.594;2023-06-19T07:22:36;3.05;;;1.80;;
25567;SDS011;13455;51.480;7.594;2023-06-19T07:25:02;2.73;;;1.77;;
25567;SDS011;13455;51.480;7.594;2023-06-19T07:27:28;4.13;;;2.03;;
25567;SDS011;13455;51.480;7.594;2023-06-19T07:29:54;3.22;;;1.90;;
25567;SDS011;13455;51.480;7.594;2023-06-19T07:32:20;2.80;;;1.80;;
25567;SDS011;13455;51.480;7.594;2023-06-19T07:34:46;2.83;;;1.90;;
25567;SDS011;13455;51.480;7.594;2023-06-19T07:37:11;2.87;;;2.00;;
25567;SDS011;13455;51.480;7.594;2023-06-19T07:39:43;3.33;;;2.00;;
25567;SDS011;13455;51.480;7.594;2023-06-19T07:42:15;3.88;;;1.92;;
25567;SDS011;13455;51.480;7.594;2023-06-19T07:44:42;3.90;;;2.00;;
25567;SDS011;13455;51.480;7.594;2023-06-19T07:47:08;3.10;;;2.20;;
25567;SDS011;13455;51.480;7.594;2023-06-19T07:49:34;2.30;;;1.80;;
25567;SDS011;13455;51.480;7.594;2023-06-19T07:52:00;2.33;;;1.77;;
25567;SDS011;13455;51.480;7.594;2023-06-19T07:54:26;3.28;;;1.95;;
25567;SDS011;13455;51.480;7.594;2023-06-19T07:56:52;3.00;;;1.95;;
25567;SDS011;13455;51.480;7.594;2023-06-19T07:59:17;3.60;;;1.90;;
25567;SDS011;13455;51.480;7.594;2023-06-19T08:01:44;4.30;;;1.90;;
25567;SDS011;13455;51.480;7.594;2023-06-19T08:04:09;3.60;;;2.00;;
25567;SDS011;13455;51.480;7.594;2023-06-19T08:06:35;4.15;;;1.90;;
25567;SDS011;13455;51.480;7.594;2023-06-19T08:09:01;3.70;;;1.93;;
25567;SDS011;13455;51.480;7.594;2023-06-19T08:11:27;3.88;;;1.73;;
25567;SDS011;13455;51.480;7.594;2023-06-19T08:13:52;4.90;;;2.00;;
25567;SDS011;13455;51.480;7.594;2023-06-19T08:16:18;3.75;;;1.88;;
25567;SDS011;13455;51.480;7.594;2023-06-19T08:18:44;3.23;;;1.87;;
25567;SDS011;13455;51.480;7.594;2023-06-19T08:21:10;3.40;;;2.00;;
25567;SDS011;13455;51.480;7.594;2023-06-19T08:23:36;3.63;;;1.80;;
25567;SDS011;13455;51.480;7.594;2023-06-19T08:26:03;3.28;;;1.60;;
25567;SDS011;13455;51.480;7.594;2023-06-19T08:28:31;2.80;;;1.85;;
25567;SDS011;13455;51.480;7.594;2023-06-19T08:30:57;2.38;;;1.70;;
25567;SDS011;13455;51.480;7.594;2023-06-19T08:33:23;2.83;;;1.63;;
25567;SDS011;13455;51.480;7.594;2023-06-19T08:35:48;4.22;;;1.75;;
25567;SDS011;13455;51.480;7.594;2023-06-19T08:38:14;2.67;;;1.70;;
25567;SDS011;13455;51.480;7.594;2023-06-19T08:40:41;2.60;;;1.92;;
25567;SDS011;13455;51.480;7.594;2023-06-19T08:43:08;4.43;;;1.95;;
25567;SDS011;13455;51.480;7.594;2023-06-19T08:45:33;2.80;;;1.87;;
25567;SDS011;13455;51.480;7.594;2023-06-19T08:48:00;4.47;;;1.95;;
25567;SDS011;13455;51.480;7.594;2023-06-19T08:50:28;3.40;;;1.90;;
25567;SDS011;13455;51.480;7.594;2023-06-19T08:52:55;3.50;;;1.93;;
25567;SDS011;13455;51.480;7.594;2023-06-19T08:55:21;3.33;;;1.90;;
25567;SDS011;13455;51.480;7.594;2023-06-19T08:57:47;4.10;;;1.92;;
25567;SDS011;13455;51.480;7.594;2023-06-19T09:00:22;3.40;;;1.80;;
25567;SDS011;13455;51.480;7.594;2023-06-19T09:02:50;3.20;;;2.00;;
25567;SDS011;13455;51.480;7.594;2023-06-19T09:05:17;3.00;;;1.90;;
25567;SDS011;13455;51.480;7.594;2023-06-19T09:07:44;6.90;;;2.10;;
25567;SDS011;13455;51.480;7.594;2023-06-19T09:10:19;4.07;;;1.80;;
25567;SDS011;13455;51.480;7.594;2023-06-19T09:12:58;3.10;;;1.87;;
25567;SDS011;13455;51.480;7.594;2023-06-19T09:15:26;3.22;;;1.92;;
25567;SDS011;13455;51.480;7.594;2023-06-19T09:20:32;4.55;;;2.00;;
25567;SDS011;13455;51.480;7.594;2023-06-19T09:23:08;3.65;;;2.00;;
25567;SDS011;13455;51.480;7.594;2023-06-19T09:25:48;4.15;;;1.92;;
25567;SDS011;13455;51.480;7.594;2023-06-19T09:31:00;3.72;;;1.88;;
25567;SDS011;13455;51.480;7.594;2023-06-19T09:33:28;4.20;;;1.98;;
25567;SDS011;13455;51.480;7.594;2023-06-19T09:35:55;3.50;;;1.90;;
25567;SDS011;13455;51.480;7.594;2023-06-19T09:38:27;3.43;;;1.83;;
25567;SDS011;13455;51.480;7.594;2023-06-19T09:40:53;4.77;;;1.90;;
25567;SDS011;13455;51.480;7.594;2023-06-19T09:43:23;4.65;;;1.92;;
25567;SDS011;13455;51.480;7.594;2023-06-19T09:45:50;5.82;;;1.90;;
25567;SDS011;13455;51.480;7.594;2023-06-19T09:48:22;4.82;;;1.98;;
25567;SDS011;13455;51.480;7.594;2023-06-19T09:51:18;3.05;;;1.92;;
25567;SDS011;13455;51.480;7.594;2023-06-19T09:53:43;4.20;;;1.80;;
25567;SDS011;13455;51.480;7.594;2023-06-19T09:56:10;3.13;;;1.70;;
25567;SDS011;13455;51.480;7.594;2023-06-19T09:58:37;3.05;;;1.50;;
25567;SDS011;13455;51.480;7.594;2023-06-19T10:01:04;4.35;;;1.50;;
25567;SDS011;13455;51.480;7.594;2023-06-19T10:03:31;3.40;;;1.40;;
25567;SDS011;13455;51.480;7.594;2023-06-19T10:06:01;3.78;;;1.60;;
25567;SDS011;13455;51.480;7.594;2023-06-19T10:08:37;3.40;;;1.45;;
25567;SDS011;13455;51.480;7.594;2023-06-19T10:11:05;3.42;;;1.70;;
25567;SDS011;13455;51.480;7.594;2023-06-19T10:13:31;2.78;;;1.90;;
25567;SDS011;13455;51.480;7.594;2023-06-19T10:15:59;2.25;;;1.80;;
25567;SDS011;13455;51.480;7.594;2023-06-19T10:18:25;2.50;;;1.77;;
25567;SDS011;13455;51.480;7.594;2023-06-19T10:20:53;5.00;;;1.90;;
25567;SDS011;13455;51.480;7.594;2023-06-19T10:23:23;3.40;;;1.77;;
25567;SDS011;13455;51.480;7.594;2023-06-19T10:25:59;4.75;;;1.77;;
25567;SDS011;13455;51.480;7.594;2023-06-19T10:28:29;2.92;;;1.70;;
25567;SDS011;13455;51.480;7.594;2023-06-19T10:31:02;5.80;;;2.10;;
25567;SDS011;13455;51.480;7.594;2023-06-19T10:33:32;3.22;;;1.90;;
25567;SDS011;13455;51.480;7.594;2023-06-19T10:35:59;3.08;;;1.83;;
25567;SDS011;13455;51.480;7.594;2023-06-19T10:38:26;2.92;;;1.88;;
25567;SDS011;13455;51.480;7.594;2023-06-19T10:40:52;3.58;;;1.80;;
25567;SDS011;13455;51.480;7.594;2023-06-19T10:43:21;3.20;;;1.92;;
25567;SDS011;13455;51.480;7.594;2023-06-19T10:45:49;4.25;;;2.10;;
25567;SDS011;13455;51.480;7.594;2023-06-19T10:48:22;2.83;;;1.97;;
25567;SDS011;13455;51.480;7.594;2023-06-19T10:50:49;4.85;;;1.98;;
25567;SDS011;13455;51.480;7.594;2023-06-19T10:53:29;4.15;;;1.95;;
25567;SDS011;13455;51.480;7.594;2023-06-19T10:55:57;7.05;;;2.33;;
25567;SDS011;13455;51.480;7.594;2023-06-19T10:58:23;4.93;;;2.40;;
25567;SDS011;13455;51.480;7.594;2023-06-19T11:00:49;3.88;;;2.28;;
25567;SDS011;13455;51.480;7.594;2023-06-19T11:03:15;4.40;;;2.20;;
25567;SDS011;13455;51.480;7.594;2023-06-19T11:05:43;4.38;;;2.13;;
25567;SDS011;13455;51.480;7.594;2023-06-19T11:08:09;3.80;;;2.20;;
25567;SDS011;13455;51.480;7.594;2023-06-19T11:10:35;3.70;;;2.40;;
25567;SDS011;13455;51.480;7.594;2023-06-19T11:13:00;6.73;;;2.50;;
25567;SDS011;13455;51.480;7.594;2023-06-19T11:17:59;5.93;;;2.50;;
25567;SDS011;13455;51.480;7.594;2023-06-19T11:20:25;5.10;;;2.50;;
25567;SDS011;13455;51.480;7.594;2023-06-19T11:22:57;4.23;;;2.40;;
25567;SDS011;13455;51.480;7.594;2023-06-19T11:25:33;4.53;;;2.40;;
25567;SDS011;13455;51.480;7.594;2023-06-19T11:28:12;3.70;;;2.33;;
25567;SDS011;13455;51.480;7.594;2023-06-19T11:30:39;5.85;;;2.53;;
25567;SDS011;13455;51.480;7.594;2023-06-19T11:33:18;4.07;;;2.33;;
25567;SDS011;13455;51.480;7.594;2023-06-19T11:35:51;4.50;;;2.50;;
25567;SDS011;13455;51.480;7.594;2023-06-19T11:38:21;4.77;;;2.50;;
25567;SDS011;13455;51.480;7.594;2023-06-19T11:40:49;4.72;;;2.60;;
25567;SDS011;13455;51.480;7.594;2023-06-19T11:43:25;4.32;;;2.55;;
25567;SDS011;13455;51.480;7.594;2023-06-19T11:45:50;3.30;;;2.63;;
25567;SDS011;13455;51.480;7.594;2023-06-19T11:48:26;3.65;;;2.63;;
25567;SDS011;13455;51.480;7.594;2023-06-19T11:50:52;3.97;;;2.70;;
25567;SDS011;13455;51.480;7.594;2023-06-19T11:53:22;4.18;;;2.70;;
25567;SDS011;13455;51.480;7.594;2023-06-19T11:55:49;6.40;;;3.00;;
25567;SDS011;13455;51.480;7.594;2023-06-19T11:58:14;4.67;;;2.60;;
25567;SDS011;13455;51.480;7.594;2023-06-19T12:00:40;5.13;;;2.72;;
25567;SDS011;13455;51.480;7.594;2023-06-19T12:03:07;4.50;;;2.60;;
25567;SDS011;13455;51.480;7.594;2023-06-19T12:05:33;5.60;;;2.70;;
25567;SDS011;13455;51.480;7.594;2023-06-19T12:07:58;6.37;;;2.70;;
25567;SDS011;13455;51.480;7.594;2023-06-19T12:10:27;4.13;;;2.70;;
25567;SDS011;13455;51.480;7.594;2023-06-19T12:12:53;4.60;;;3.00;;
25567;SDS011;13455;51.480;7.594;2023-06-19T12:15:19;5.27;;;2.70;;
25567;SDS011;13455;51.480;7.594;2023-06-19T12:17:45;4.90;;;3.10;;
25567;SDS011;13455;51.480;7.594;2023-06-19T12:20:11;5.60;;;2.60;;
25567;SDS011;13455;51.480;7.594;2023-06-19T12:22:38;4.43;;;2.90;;
25567;SDS011;13455;51.480;7.594;2023-06-19T12:25:05;5.10;;;2.80;;
25567;SDS011;13455;51.480;7.594;2023-06-19T12:27:30;5.20;;;2.90;;
25567;SDS011;13455;51.480;7.594;2023-06-19T12:29:56;5.17;;;2.80;;
25567;SDS011;13455;51.480;7.594;2023-06-19T12:32:22;4.77;;;2.70;;
25567;SDS011;13455;51.480;7.594;2023-06-19T12:34:48;5.65;;;2.72;;
25567;SDS011;13455;51.480;7.594;2023-06-19T12:37:14;7.63;;;2.90;;
25567;SDS011;13455;51.480;7.594;2023-06-19T12:39:42;5.60;;;3.07;;
25567;SDS011;13455;51.480;7.594;2023-06-19T12:42:08;5.78;;;2.80;;
25567;SDS011;13455;51.480;7.594;2023-06-19T12:44:37;4.60;;;2.78;;
25567;SDS011;13455;51.480;7.594;2023-06-19T12:47:03;4.72;;;3.00;;
25567;SDS011;13455;51.480;7.594;2023-06-19T12:49:29;3.67;;;2.78;;
25567;SDS011;13455;51.480;7.594;2023-06-19T12:51:55;4.30;;;2.80;;
25567;SDS011;13455;51.480;7.594;2023-06-19T12:54:21;5.40;;;3.20;;
25567;SDS011;13455;51.480;7.594;2023-06-19T12:56:48;4.68;;;3.08;;
25567;SDS011;13455;51.480;7.594;2023-06-19T12:59:14;6.28;;;2.65;;
25567;SDS011;13455;51.480;7.594;2023-06-19T13:01:40;5.82;;;2.88;;
25567;SDS011;13455;51.480;7.594;2023-06-19T13:04:06;6.03;;;2.90;;
25567;SDS011;13455;51.480;7.594;2023-06-19T13:06:35;8.07;;;2.80;;
25567;SDS011;13455;51.480;7.594;2023-06-19T13:09:01;3.70;;;2.70;;
25567;SDS011;13455;51.480;7.594;2023-06-19T13:11:27;5.68;;;2.90;;
25567;SDS011;13455;51.480;7.594;2023-06-19T13:13:53;5.40;;;3.10;;
25567;SDS011;13455;51.480;7.594;2023-06-19T13:16:19;5.40;;;2.90;;
25567;SDS011;13455;51.480;7.594;2023-06-19T13:18:44;5.57;;;2.77;;
25567;SDS011;13455;51.480;7.594;2023-06-19T13:21:11;5.28;;;2.97;;
25567;SDS011;13455;51.480;7.594;2023-06-19T13:23:37;4.65;;;2.70;;
25567;SDS011;13455;51.480;7.594;2023-06-19T13:26:05;6.95;;;3.10;;
25567;SDS011;13455;51.480;7.594;2023-06-19T13:28:31;4.80;;;2.80;;
25567;SDS011;13455;51.480;7.594;2023-06-19T13:30:57;5.53;;;2.85;;
25567;SDS011;13455;51.480;7.594;2023-06-19T13:33:24;5.00;;;2.80;;
25567;SDS011;13455;51.480;7.594;2023-06-19T13:35:50;5.63;;;2.90;;
25567;SDS011;13455;51.480;7.594;2023-06-19T13:38:16;5.38;;;2.90;;
25567;SDS011;13455;51.480;7.594;2023-06-19T13:40:42;6.45;;;2.80;;
25567;SDS011;13455;51.480;7.594;2023-06-19T13:43:08;4.93;;;2.78;;
25567;SDS011;13455;51.480;7.594;2023-06-19T13:45:33;5.50;;;2.88;;
25567;SDS011;13455;51.480;7.594;2023-06-19T13:47:59;4.57;;;2.90;;
25567;SDS011;13455;51.480;7.594;2023-06-19T13:50:26;4.65;;;2.80;;
25567;SDS011;13455;51.480;7.594;2023-06-19T13:52:52;5.70;;;2.92;;
25567;SDS011;13455;51.480;7.594;2023-06-19T13:55:19;5.00;;;2.63;;
25567;SDS011;13455;51.480;7.594;2023-06-19T13:57:45;4.00;;;2.80;;
25567;SDS011;13455;51.480;7.594;2023-06-19T14:00:12;4.63;;;2.63;;
25567;SDS011;13455;51.480;7.594;2023-06-19T14:02:38;5.18;;;2.60;;
25567;SDS011;13455;51.480;7.594;2023-06-19T14:05:06;6.10;;;2.90;;
25567;SDS011;13455;51.480;7.594;2023-06-19T14:07:32;5.68;;;2.90;;
25567;SDS011;13455;51.480;7.594;2023-06-19T14:10:02;6.13;;;2.80;;
25567;SDS011;13455;51.480;7.594;2023-06-19T14:12:29;6.07;;;3.07;;
25567;SDS011;13455;51.480;7.594;2023-06-19T14:14:55;4.93;;;3.00;;
25567;SDS011;13455;51.480;7.594;2023-06-19T14:17:22;6.17;;;3.13;;
25567;SDS011;13455;51.480;7.594;2023-06-19T14:19:48;6.90;;;3.00;;
25567;SDS011;13455;51.480;7.594;2023-06-19T14:22:15;6.55;;;2.88;;
25567;SDS011;13455;51.480;7.594;2023-06-19T14:24:42;6.47;;;3.00;;
25567;SDS011;13455;51.480;7.594;2023-06-19T14:27:08;4.38;;;2.80;;
25567;SDS011;13455;51.480;7.594;2023-06-19T14:29:33;7.30;;;2.80;;
25567;SDS011;13455;51.480;7.594;2023-06-19T14:31:59;4.87;;;2.83;;
25567;SDS011;13455;51.480;7.594;2023-06-19T14:34:24;7.47;;;2.70;;
25567;SDS011;13455;51.480;7.594;2023-06-19T14:36:50;6.55;;;2.65;;
25567;SDS011;13455;51.480;7.594;2023-06-19T14:39:16;3.78;;;2.50;;
25567;SDS011;13455;51.480;7.594;2023-06-19T14:41:42;4.57;;;2.53;;
25567;SDS011;13455;51.480;7.594;2023-06-19T14:44:08;4.50;;;2.50;;
25567;SDS011;13455;51.480;7.594;2023-06-19T14:46:34;4.60;;;2.70;;
25567;SDS011;13455;51.480;7.594;2023-06-19T14:49:09;5.50;;;2.73;;
25567;SDS011;13455;51.480;7.594;2023-06-19T14:51:37;5.43;;;2.63;;
25567;SDS011;13455;51.480;7.594;2023-06-19T14:54:03;4.00;;;2.70;;